PAGY/SGY METAR and TAF weather

Enter ICAO airport designator
Station Type Date Time Source
PAGY METAR 2022/12/08 12:53 UTC NOAA

PAGY 081253Z AUTO 00000KT 4SM -SN BR OVC024 01/00 A2919 RMK AO2 RAB45E52 SLP884 P0003 T00060000 TSNO


Station Type Date Time Source
PAGY Decoded METAR 2022/12/08 12:53 UTC NOAA

SKAGWAY AIRPORT, AK, United States (PAGY) 59-28N 135-19W 5M
Dec 08, 2022 - 07:53 AM EST / 2022.12.08 1253 UTC
Wind: Calm:0
Visibility: 4 mile(s):0
Sky conditions: overcast
Weather: light snow; mist
Precipitation last hour: 0.03 inches
Temperature: 33.1 F (0.6 C)
Dew Point: 32.0 F (0.0 C)
Relative Humidity: 95%
Pressure (altimeter): 29.19 in. Hg (988 hPa)
ob: PAGY 081253Z AUTO 00000KT 4SM -SN BR OVC024 01/00 A2919 RMK AO2 RAB45E52 SLP884 P0003 T00060000 TSNO
cycle: 13

Station Type Date Time Source
PAGY TAF 2022/12/08 12:42 UTC NOAA

TAF PAGY 081141Z 0812/0912 00000KT 5SM -SN BR OVC026
FM082000 21010KT 6SM -RASN SCT015 OVC030
FM090300 04015KT P6SM SCT007 BKN050
AMD LTD TO CLD VIS AND WIND

Example: see airport list